sensor_id;sensor_type;location;lat;lon;timestamp;P1;durP1;ratioP1;P2;durP2;ratioP2
78774;SDS011;68119;43.398;3.676;2023-05-18T00:01:22;5.75;;;3.22;;
78774;SDS011;68119;43.398;3.676;2023-05-18T00:03:54;12.25;;;3.28;;
78774;SDS011;68119;43.398;3.676;2023-05-18T00:06:21;7.15;;;3.35;;
78774;SDS011;68119;43.398;3.676;2023-05-18T00:08:55;5.70;;;3.10;;
78774;SDS011;68119;43.398;3.676;2023-05-18T00:13:50;7.78;;;3.53;;
78774;SDS011;68119;43.398;3.676;2023-05-18T00:16:19;7.38;;;3.45;;
78774;SDS011;68119;43.398;3.676;2023-05-18T00:18:45;6.65;;;3.50;;
78774;SDS011;68119;43.398;3.676;2023-05-18T00:21:14;8.77;;;3.70;;
78774;SDS011;68119;43.398;3.676;2023-05-18T00:23:44;7.22;;;3.65;;
78774;SDS011;68119;43.398;3.676;2023-05-18T00:26:16;6.88;;;3.35;;
78774;SDS011;68119;43.398;3.676;2023-05-18T00:28:42;8.13;;;3.63;;
78774;SDS011;68119;43.398;3.676;2023-05-18T00:31:10;7.13;;;3.60;;
78774;SDS011;68119;43.398;3.676;2023-05-18T00:33:39;9.80;;;3.75;;
78774;SDS011;68119;43.398;3.676;2023-05-18T00:36:08;8.63;;;3.70;;
78774;SDS011;68119;43.398;3.676;2023-05-18T00:38:36;10.20;;;3.90;;
78774;SDS011;68119;43.398;3.676;2023-05-18T00:41:05;5.78;;;3.35;;
78774;SDS011;68119;43.398;3.676;2023-05-18T00:43:34;7.75;;;3.90;;
78774;SDS011;68119;43.398;3.676;2023-05-18T00:46:05;8.25;;;3.45;;
78774;SDS011;68119;43.398;3.676;2023-05-18T00:48:31;7.97;;;3.33;;
78774;SDS011;68119;43.398;3.676;2023-05-18T00:50:57;5.55;;;3.35;;
78774;SDS011;68119;43.398;3.676;2023-05-18T00:53:26;8.02;;;3.67;;
78774;SDS011;68119;43.398;3.676;2023-05-18T00:55:58;6.20;;;3.47;;
78774;SDS011;68119;43.398;3.676;2023-05-18T00:58:30;7.80;;;3.58;;
78774;SDS011;68119;43.398;3.676;2023-05-18T01:00:58;7.47;;;3.83;;
78774;SDS011;68119;43.398;3.676;2023-05-18T01:03:27;5.45;;;3.50;;
78774;SDS011;68119;43.398;3.676;2023-05-18T01:05:54;5.15;;;3.47;;
78774;SDS011;68119;43.398;3.676;2023-05-18T01:08:25;6.35;;;3.53;;
78774;SDS011;68119;43.398;3.676;2023-05-18T01:11:02;7.20;;;3.55;;
78774;SDS011;68119;43.398;3.676;2023-05-18T01:13:34;6.10;;;3.70;;
78774;SDS011;68119;43.398;3.676;2023-05-18T01:16:06;7.00;;;3.97;;
78774;SDS011;68119;43.398;3.676;2023-05-18T01:18:36;7.03;;;3.75;;
78774;SDS011;68119;43.398;3.676;2023-05-18T01:28:51;5.50;;;3.42;;
78774;SDS011;68119;43.398;3.676;2023-05-18T01:31:22;6.55;;;3.72;;
78774;SDS011;68119;43.398;3.676;2023-05-18T01:33:51;6.82;;;3.80;;
78774;SDS011;68119;43.398;3.676;2023-05-18T01:38:48;8.50;;;4.10;;
78774;SDS011;68119;43.398;3.676;2023-05-18T01:41:25;6.78;;;3.63;;
78774;SDS011;68119;43.398;3.676;2023-05-18T01:48:57;9.45;;;3.83;;
78774;SDS011;68119;43.398;3.676;2023-05-18T01:51:28;6.80;;;3.80;;
78774;SDS011;68119;43.398;3.676;2023-05-18T01:53:59;6.68;;;3.40;;
78774;SDS011;68119;43.398;3.676;2023-05-18T01:59:01;6.13;;;3.63;;
78774;SDS011;68119;43.398;3.676;2023-05-18T02:01:28;6.00;;;3.60;;
78774;SDS011;68119;43.398;3.676;2023-05-18T02:03:56;5.85;;;3.78;;
78774;SDS011;68119;43.398;3.676;2023-05-18T02:06:28;5.82;;;3.63;;
78774;SDS011;68119;43.398;3.676;2023-05-18T02:08:58;6.97;;;3.97;;
78774;SDS011;68119;43.398;3.676;2023-05-18T02:11:24;8.77;;;3.90;;
78774;SDS011;68119;43.398;3.676;2023-05-18T02:13:53;6.45;;;4.00;;
78774;SDS011;68119;43.398;3.676;2023-05-18T02:16:22;8.02;;;4.00;;
78774;SDS011;68119;43.398;3.676;2023-05-18T02:18:50;7.38;;;3.97;;
78774;SDS011;68119;43.398;3.676;2023-05-18T02:21:20;8.00;;;3.95;;
78774;SDS011;68119;43.398;3.676;2023-05-18T02:23:52;6.50;;;4.00;;
78774;SDS011;68119;43.398;3.676;2023-05-18T02:26:21;5.90;;;3.80;;
78774;SDS011;68119;43.398;3.676;2023-05-18T02:28:47;7.40;;;3.70;;
78774;SDS011;68119;43.398;3.676;2023-05-18T02:31:18;7.05;;;3.80;;
78774;SDS011;68119;43.398;3.676;2023-05-18T02:33:44;5.30;;;3.35;;
78774;SDS011;68119;43.398;3.676;2023-05-18T02:36:11;5.88;;;3.90;;
78774;SDS011;68119;43.398;3.676;2023-05-18T02:38:39;6.32;;;4.25;;
78774;SDS011;68119;43.398;3.676;2023-05-18T02:41:12;6.43;;;3.72;;
78774;SDS011;68119;43.398;3.676;2023-05-18T02:43:38;6.25;;;3.65;;
78774;SDS011;68119;43.398;3.676;2023-05-18T02:46:05;6.32;;;3.72;;
78774;SDS011;68119;43.398;3.676;2023-05-18T02:48:33;5.55;;;3.90;;
78774;SDS011;68119;43.398;3.676;2023-05-18T02:51:00;5.75;;;3.58;;
78774;SDS011;68119;43.398;3.676;2023-05-18T02:53:26;7.13;;;4.18;;
78774;SDS011;68119;43.398;3.676;2023-05-18T02:55:55;7.97;;;3.90;;
78774;SDS011;68119;43.398;3.676;2023-05-18T02:58:27;7.85;;;4.18;;
78774;SDS011;68119;43.398;3.676;2023-05-18T03:00:53;7.22;;;4.00;;
78774;SDS011;68119;43.398;3.676;2023-05-18T03:03:22;5.82;;;4.00;;
78774;SDS011;68119;43.398;3.676;2023-05-18T03:05:52;7.68;;;3.83;;
78774;SDS011;68119;43.398;3.676;2023-05-18T03:08:23;6.97;;;4.18;;
78774;SDS011;68119;43.398;3.676;2023-05-18T03:10:53;9.35;;;4.18;;
78774;SDS011;68119;43.398;3.676;2023-05-18T03:13:27;6.95;;;4.32;;
78774;SDS011;68119;43.398;3.676;2023-05-18T03:15:55;5.95;;;3.67;;
78774;SDS011;68119;43.398;3.676;2023-05-18T03:18:25;7.10;;;4.10;;
78774;SDS011;68119;43.398;3.676;2023-05-18T03:20:53;7.75;;;3.78;;
78774;SDS011;68119;43.398;3.676;2023-05-18T03:23:28;9.57;;;4.40;;
78774;SDS011;68119;43.398;3.676;2023-05-18T03:25:57;8.82;;;3.65;;
78774;SDS011;68119;43.398;3.676;2023-05-18T03:28:32;7.25;;;4.05;;
78774;SDS011;68119;43.398;3.676;2023-05-18T03:33:24;6.53;;;4.00;;
78774;SDS011;68119;43.398;3.676;2023-05-18T03:35:52;9.20;;;4.20;;
78774;SDS011;68119;43.398;3.676;2023-05-18T03:38:21;8.65;;;4.10;;
78774;SDS011;68119;43.398;3.676;2023-05-18T03:40:50;6.47;;;4.00;;
78774;SDS011;68119;43.398;3.676;2023-05-18T03:43:18;7.40;;;3.95;;
78774;SDS011;68119;43.398;3.676;2023-05-18T03:45:56;7.10;;;4.15;;
78774;SDS011;68119;43.398;3.676;2023-05-18T03:48:28;8.35;;;4.25;;
78774;SDS011;68119;43.398;3.676;2023-05-18T03:50:56;7.28;;;4.13;;
78774;SDS011;68119;43.398;3.676;2023-05-18T03:53:25;7.25;;;4.00;;
78774;SDS011;68119;43.398;3.676;2023-05-18T03:55:51;7.85;;;4.15;;
78774;SDS011;68119;43.398;3.676;2023-05-18T03:58:20;5.70;;;3.75;;
78774;SDS011;68119;43.398;3.676;2023-05-18T04:00:51;8.67;;;4.17;;
78774;SDS011;68119;43.398;3.676;2023-05-18T04:03:20;6.80;;;4.20;;
78774;SDS011;68119;43.398;3.676;2023-05-18T04:05:52;8.13;;;3.92;;
78774;SDS011;68119;43.398;3.676;2023-05-18T04:08:22;8.30;;;4.18;;
78774;SDS011;68119;43.398;3.676;2023-05-18T04:10:49;8.07;;;4.43;;
78774;SDS011;68119;43.398;3.676;2023-05-18T04:13:20;6.20;;;4.18;;
78774;SDS011;68119;43.398;3.676;2023-05-18T04:15:46;11.38;;;4.45;;
78774;SDS011;68119;43.398;3.676;2023-05-18T04:18:16;6.55;;;4.18;;
78774;SDS011;68119;43.398;3.676;2023-05-18T04:20:45;7.80;;;4.10;;
78774;SDS011;68119;43.398;3.676;2023-05-18T04:23:13;6.75;;;4.57;;
78774;SDS011;68119;43.398;3.676;2023-05-18T04:25:42;9.32;;;4.30;;
78774;SDS011;68119;43.398;3.676;2023-05-18T04:28:08;7.72;;;4.07;;
78774;SDS011;68119;43.398;3.676;2023-05-18T04:30:37;8.43;;;4.15;;
78774;SDS011;68119;43.398;3.676;2023-05-18T04:33:04;8.10;;;4.30;;
78774;SDS011;68119;43.398;3.676;2023-05-18T04:35:33;8.77;;;4.18;;
78774;SDS011;68119;43.398;3.676;2023-05-18T04:38:00;8.65;;;4.30;;
78774;SDS011;68119;43.398;3.676;2023-05-18T04:40:26;11.27;;;4.43;;
78774;SDS011;68119;43.398;3.676;2023-05-18T04:42:55;8.98;;;3.83;;
78774;SDS011;68119;43.398;3.676;2023-05-18T04:45:27;7.78;;;4.43;;
78774;SDS011;68119;43.398;3.676;2023-05-18T04:47:54;7.38;;;4.13;;
78774;SDS011;68119;43.398;3.676;2023-05-18T04:50:20;9.00;;;4.28;;
78774;SDS011;68119;43.398;3.676;2023-05-18T04:52:50;7.18;;;4.13;;
78774;SDS011;68119;43.398;3.676;2023-05-18T04:55:16;6.88;;;3.60;;
78774;SDS011;68119;43.398;3.676;2023-05-18T04:57:50;9.50;;;4.53;;
78774;SDS011;68119;43.398;3.676;2023-05-18T05:00:27;6.47;;;4.43;;
78774;SDS011;68119;43.398;3.676;2023-05-18T05:02:57;7.95;;;4.10;;
78774;SDS011;68119;43.398;3.676;2023-05-18T05:05:25;8.27;;;4.07;;
78774;SDS011;68119;43.398;3.676;2023-05-18T05:07:52;7.25;;;4.38;;
78774;SDS011;68119;43.398;3.676;2023-05-18T05:10:21;7.22;;;4.43;;
78774;SDS011;68119;43.398;3.676;2023-05-18T05:15:18;8.60;;;4.80;;
78774;SDS011;68119;43.398;3.676;2023-05-18T05:17:45;8.48;;;4.70;;
78774;SDS011;68119;43.398;3.676;2023-05-18T05:20:14;8.40;;;4.28;;
78774;SDS011;68119;43.398;3.676;2023-05-18T05:22:44;6.25;;;4.30;;
78774;SDS011;68119;43.398;3.676;2023-05-18T05:25:13;8.95;;;4.30;;
78774;SDS011;68119;43.398;3.676;2023-05-18T05:27:44;11.57;;;4.93;;
78774;SDS011;68119;43.398;3.676;2023-05-18T05:30:10;8.90;;;4.50;;
78774;SDS011;68119;43.398;3.676;2023-05-18T05:32:42;7.63;;;4.28;;
78774;SDS011;68119;43.398;3.676;2023-05-18T05:35:13;8.25;;;4.45;;
78774;SDS011;68119;43.398;3.676;2023-05-18T05:37:41;8.88;;;4.43;;
78774;SDS011;68119;43.398;3.676;2023-05-18T05:40:10;8.32;;;4.13;;
78774;SDS011;68119;43.398;3.676;2023-05-18T05:42:37;7.07;;;4.43;;
78774;SDS011;68119;43.398;3.676;2023-05-18T05:45:06;7.70;;;4.30;;
78774;SDS011;68119;43.398;3.676;2023-05-18T05:47:35;9.73;;;4.82;;
78774;SDS011;68119;43.398;3.676;2023-05-18T05:50:02;8.05;;;4.20;;
78774;SDS011;68119;43.398;3.676;2023-05-18T05:52:34;6.10;;;4.43;;
78774;SDS011;68119;43.398;3.676;2023-05-18T05:55:05;10.40;;;4.70;;
78774;SDS011;68119;43.398;3.676;2023-05-18T05:57:37;11.00;;;5.18;;
78774;SDS011;68119;43.398;3.676;2023-05-18T06:00:10;6.82;;;4.05;;
78774;SDS011;68119;43.398;3.676;2023-05-18T06:02:39;8.13;;;4.30;;
78774;SDS011;68119;43.398;3.676;2023-05-18T06:05:07;8.27;;;4.20;;
78774;SDS011;68119;43.398;3.676;2023-05-18T06:07:39;10.20;;;5.00;;
78774;SDS011;68119;43.398;3.676;2023-05-18T06:10:11;9.23;;;4.63;;
78774;SDS011;68119;43.398;3.676;2023-05-18T06:12:37;8.18;;;4.50;;
78774;SDS011;68119;43.398;3.676;2023-05-18T06:15:06;9.52;;;4.53;;
78774;SDS011;68119;43.398;3.676;2023-05-18T06:17:42;8.20;;;4.07;;
78774;SDS011;68119;43.398;3.676;2023-05-18T06:20:09;7.03;;;4.38;;
78774;SDS011;68119;43.398;3.676;2023-05-18T06:22:41;8.43;;;4.30;;
78774;SDS011;68119;43.398;3.676;2023-05-18T06:25:11;9.20;;;4.85;;
78774;SDS011;68119;43.398;3.676;2023-05-18T06:27:37;5.97;;;3.97;;
78774;SDS011;68119;43.398;3.676;2023-05-18T06:30:06;7.82;;;4.50;;
78774;SDS011;68119;43.398;3.676;2023-05-18T06:32:37;8.20;;;4.38;;
78774;SDS011;68119;43.398;3.676;2023-05-18T06:35:06;6.85;;;4.38;;
78774;SDS011;68119;43.398;3.676;2023-05-18T06:37:39;9.60;;;4.43;;
78774;SDS011;68119;43.398;3.676;2023-05-18T06:40:08;7.95;;;4.10;;
78774;SDS011;68119;43.398;3.676;2023-05-18T06:42:37;9.93;;;4.53;;
78774;SDS011;68119;43.398;3.676;2023-05-18T06:45:06;7.05;;;4.68;;
78774;SDS011;68119;43.398;3.676;2023-05-18T06:47:35;8.95;;;4.60;;
78774;SDS011;68119;43.398;3.676;2023-05-18T06:50:08;8.40;;;4.80;;
78774;SDS011;68119;43.398;3.676;2023-05-18T06:52:40;9.68;;;4.88;;
78774;SDS011;68119;43.398;3.676;2023-05-18T06:55:07;8.93;;;4.88;;
78774;SDS011;68119;43.398;3.676;2023-05-18T06:57:39;8.45;;;4.43;;
78774;SDS011;68119;43.398;3.676;2023-05-18T07:00:10;9.30;;;4.70;;
78774;SDS011;68119;43.398;3.676;2023-05-18T07:02:39;8.77;;;4.53;;
78774;SDS011;68119;43.398;3.676;2023-05-18T07:05:10;7.93;;;4.85;;
78774;SDS011;68119;43.398;3.676;2023-05-18T07:07:39;6.18;;;4.00;;
78774;SDS011;68119;43.398;3.676;2023-05-18T07:10:06;7.18;;;4.43;;
78774;SDS011;68119;43.398;3.676;2023-05-18T07:12:37;8.07;;;4.43;;
78774;SDS011;68119;43.398;3.676;2023-05-18T07:15:04;10.82;;;4.57;;
78774;SDS011;68119;43.398;3.676;2023-05-18T07:17:35;11.65;;;4.45;;
78774;SDS011;68119;43.398;3.676;2023-05-18T07:20:08;10.02;;;5.03;;
78774;SDS011;68119;43.398;3.676;2023-05-18T07:22:36;9.43;;;4.75;;
78774;SDS011;68119;43.398;3.676;2023-05-18T07:25:02;8.18;;;4.20;;
78774;SDS011;68119;43.398;3.676;2023-05-18T07:27:34;10.40;;;5.13;;
78774;SDS011;68119;43.398;3.676;2023-05-18T07:30:00;8.73;;;4.55;;
78774;SDS011;68119;43.398;3.676;2023-05-18T07:32:26;7.85;;;4.40;;
78774;SDS011;68119;43.398;3.676;2023-05-18T07:34:53;7.28;;;4.32;;
78774;SDS011;68119;43.398;3.676;2023-05-18T07:37:22;8.57;;;4.50;;
78774;SDS011;68119;43.398;3.676;2023-05-18T07:39:51;7.10;;;4.43;;
78774;SDS011;68119;43.398;3.676;2023-05-18T07:42:20;7.38;;;4.43;;
78774;SDS011;68119;43.398;3.676;2023-05-18T07:44:50;6.95;;;4.30;;
78774;SDS011;68119;43.398;3.676;2023-05-18T07:47:18;7.18;;;4.32;;
78774;SDS011;68119;43.398;3.676;2023-05-18T07:49:45;8.23;;;4.30;;
78774;SDS011;68119;43.398;3.676;2023-05-18T07:52:12;7.03;;;4.07;;
78774;SDS011;68119;43.398;3.676;2023-05-18T07:54:38;7.05;;;4.38;;
78774;SDS011;68119;43.398;3.676;2023-05-18T07:57:06;7.70;;;4.25;;
78774;SDS011;68119;43.398;3.676;2023-05-18T07:59:35;7.10;;;4.05;;
78774;SDS011;68119;43.398;3.676;2023-05-18T08:02:04;9.75;;;4.30;;
78774;SDS011;68119;43.398;3.676;2023-05-18T08:04:30;6.97;;;4.28;;
78774;SDS011;68119;43.398;3.676;2023-05-18T08:06:59;9.15;;;4.45;;
78774;SDS011;68119;43.398;3.676;2023-05-18T08:09:29;7.32;;;4.43;;
78774;SDS011;68119;43.398;3.676;2023-05-18T08:11:56;7.03;;;4.20;;
78774;SDS011;68119;43.398;3.676;2023-05-18T08:14:22;8.90;;;4.00;;
78774;SDS011;68119;43.398;3.676;2023-05-18T08:16:51;6.85;;;4.03;;
78774;SDS011;68119;43.398;3.676;2023-05-18T08:19:25;6.68;;;4.00;;
78774;SDS011;68119;43.398;3.676;2023-05-18T08:21:56;6.40;;;3.92;;
78774;SDS011;68119;43.398;3.676;2023-05-18T08:24:28;5.65;;;3.70;;
78774;SDS011;68119;43.398;3.676;2023-05-18T08:27:03;7.07;;;4.00;;
78774;SDS011;68119;43.398;3.676;2023-05-18T08:29:34;7.50;;;3.65;;
78774;SDS011;68119;43.398;3.676;2023-05-18T08:32:04;7.47;;;3.75;;
78774;SDS011;68119;43.398;3.676;2023-05-18T08:34:30;7.35;;;3.90;;
78774;SDS011;68119;43.398;3.676;2023-05-18T08:37:04;7.47;;;4.10;;
78774;SDS011;68119;43.398;3.676;2023-05-18T08:39:30;8.85;;;3.80;;
78774;SDS011;68119;43.398;3.676;2023-05-18T08:42:01;7.22;;;3.63;;
78774;SDS011;68119;43.398;3.676;2023-05-18T08:44:44;7.07;;;3.30;;
78774;SDS011;68119;43.398;3.676;2023-05-18T08:47:11;7.13;;;3.50;;
78774;SDS011;68119;43.398;3.676;2023-05-18T08:49:44;4.77;;;3.33;;
78774;SDS011;68119;43.398;3.676;2023-05-18T08:52:13;6.97;;;3.45;;
78774;SDS011;68119;43.398;3.676;2023-05-18T08:54:47;7.22;;;3.45;;
78774;SDS011;68119;43.398;3.676;2023-05-18T08:57:15;6.25;;;3.22;;
78774;SDS011;68119;43.398;3.676;2023-05-18T08:59:42;6.60;;;3.25;;
78774;SDS011;68119;43.398;3.676;2023-05-18T09:02:11;5.32;;;3.10;;
78774;SDS011;68119;43.398;3.676;2023-05-18T09:04:38;6.25;;;3.17;;
78774;SDS011;68119;43.398;3.676;2023-05-18T09:07:06;5.85;;;3.40;;
78774;SDS011;68119;43.398;3.676;2023-05-18T09:09:35;6.82;;;3.80;;
78774;SDS011;68119;43.398;3.676;2023-05-18T09:12:04;5.25;;;3.22;;
78774;SDS011;68119;43.398;3.676;2023-05-18T09:14:34;5.88;;;3.28;;
78774;SDS011;68119;43.398;3.676;2023-05-18T09:17:00;8.57;;;4.25;;
78774;SDS011;68119;43.398;3.676;2023-05-18T09:19:29;7.63;;;4.13;;
78774;SDS011;68119;43.398;3.676;2023-05-18T09:21:58;7.20;;;4.10;;
78774;SDS011;68119;43.398;3.676;2023-05-18T09:24:24;7.65;;;3.75;;
78774;SDS011;68119;43.398;3.676;2023-05-18T09:26:50;6.70;;;4.05;;
78774;SDS011;68119;43.398;3.676;2023-05-18T09:29:22;7.65;;;4.05;;
78774;SDS011;68119;43.398;3.676;2023-05-18T09:31:51;6.50;;;4.03;;
78774;SDS011;68119;43.398;3.676;2023-05-18T09:34:18;8.05;;;4.28;;
78774;SDS011;68119;43.398;3.676;2023-05-18T09:36:48;8.55;;;4.30;;
78774;SDS011;68119;43.398;3.676;2023-05-18T09:39:18;7.55;;;4.05;;
78774;SDS011;68119;43.398;3.676;2023-05-18T09:41:44;8.48;;;4.18;;
78774;SDS011;68119;43.398;3.676;2023-05-18T09:44:13;9.98;;;4.05;;
78774;SDS011;68119;43.398;3.676;2023-05-18T09:46:40;8.38;;;4.00;;
78774;SDS011;68119;43.398;3.676;2023-05-18T09:49:06;6.85;;;3.78;;
78774;SDS011;68119;43.398;3.676;2023-05-18T09:51:37;8.43;;;4.00;;
78774;SDS011;68119;43.398;3.676;2023-05-18T09:54:03;7.30;;;4.40;;
78774;SDS011;68119;43.398;3.676;2023-05-18T09:56:35;8.18;;;4.32;;
78774;SDS011;68119;43.398;3.676;2023-05-18T09:59:14;13.88;;;4.40;;
78774;SDS011;68119;43.398;3.676;2023-05-18T10:02:04;7.25;;;3.90;;
78774;SDS011;68119;43.398;3.676;2023-05-18T10:04:44;7.18;;;3.95;;
78774;SDS011;68119;43.398;3.676;2023-05-18T10:07:11;7.72;;;3.90;;
78774;SDS011;68119;43.398;3.676;2023-05-18T10:09:40;7.03;;;3.80;;
78774;SDS011;68119;43.398;3.676;2023-05-18T10:12:15;10.15;;;3.90;;
78774;SDS011;68119;43.398;3.676;2023-05-18T10:14:43;9.15;;;4.18;;
78774;SDS011;68119;43.398;3.676;2023-05-18T10:17:18;9.40;;;4.15;;
78774;SDS011;68119;43.398;3.676;2023-05-18T10:19:44;8.50;;;4.30;;
78774;SDS011;68119;43.398;3.676;2023-05-18T10:22:14;6.70;;;4.13;;
78774;SDS011;68119;43.398;3.676;2023-05-18T10:24:47;7.20;;;4.03;;
78774;SDS011;68119;43.398;3.676;2023-05-18T10:27:15;6.82;;;4.10;;
78774;SDS011;68119;43.398;3.676;2023-05-18T10:29:47;7.88;;;4.43;;
78774;SDS011;68119;43.398;3.676;2023-05-18T10:32:18;6.10;;;4.13;;
78774;SDS011;68119;43.398;3.676;2023-05-18T10:34:48;7.80;;;4.15;;
78774;SDS011;68119;43.398;3.676;2023-05-18T10:37:21;7.68;;;3.95;;
78774;SDS011;68119;43.398;3.676;2023-05-18T10:39:51;7.40;;;4.20;;
78774;SDS011;68119;43.398;3.676;2023-05-18T10:42:22;7.75;;;3.90;;
78774;SDS011;68119;43.398;3.676;2023-05-18T10:44:49;6.53;;;3.75;;
78774;SDS011;68119;43.398;3.676;2023-05-18T10:47:18;7.63;;;4.05;;
78774;SDS011;68119;43.398;3.676;2023-05-18T10:49:49;6.93;;;4.57;;
78774;SDS011;68119;43.398;3.676;2023-05-18T10:52:19;8.77;;;4.50;;
78774;SDS011;68119;43.398;3.676;2023-05-18T10:54:46;9.30;;;4.32;;
78774;SDS011;68119;43.398;3.676;2023-05-18T10:57:14;9.32;;;4.70;;
78774;SDS011;68119;43.398;3.676;2023-05-18T10:59:43;8.70;;;3.97;;
78774;SDS011;68119;43.398;3.676;2023-05-18T11:02:19;7.35;;;4.10;;
78774;SDS011;68119;43.398;3.676;2023-05-18T11:04:46;7.53;;;4.20;;
78774;SDS011;68119;43.398;3.676;2023-05-18T11:07:15;10.65;;;5.65;;
78774;SDS011;68119;43.398;3.676;2023-05-18T11:09:44;8.88;;;5.15;;
78774;SDS011;68119;43.398;3.676;2023-05-18T11:12:15;8.80;;;4.72;;
78774;SDS011;68119;43.398;3.676;2023-05-18T11:14:49;8.65;;;5.18;;
78774;SDS011;68119;43.398;3.676;2023-05-18T11:17:28;9.52;;;5.38;;
78774;SDS011;68119;43.398;3.676;2023-05-18T11:22:44;8.70;;;4.50;;
78774;SDS011;68119;43.398;3.676;2023-05-18T11:27:53;10.57;;;4.57;;
78774;SDS011;68119;43.398;3.676;2023-05-18T11:35:27;9.48;;;4.05;;
78774;SDS011;68119;43.398;3.676;2023-05-18T11:40:44;7.07;;;4.18;;
78774;SDS011;68119;43.398;3.676;2023-05-18T11:43:31;10.18;;;4.43;;
78774;SDS011;68119;43.398;3.676;2023-05-18T11:46:00;7.22;;;4.05;;
78774;SDS011;68119;43.398;3.676;2023-05-18T11:48:29;8.52;;;4.30;;
78774;SDS011;68119;43.398;3.676;2023-05-18T11:50:58;7.82;;;3.97;;
78774;SDS011;68119;43.398;3.676;2023-05-18T11:53:25;6.97;;;4.00;;
78774;SDS011;68119;43.398;3.676;2023-05-18T11:56:00;8.38;;;4.43;;
78774;SDS011;68119;43.398;3.676;2023-05-18T11:58:32;6.90;;;4.28;;
78774;SDS011;68119;43.398;3.676;2023-05-18T12:01:01;10.18;;;4.63;;
78774;SDS011;68119;43.398;3.676;2023-05-18T12:03:38;10.23;;;4.40;;
78774;SDS011;68119;43.398;3.676;2023-05-18T12:06:10;8.38;;;4.60;;
78774;SDS011;68119;43.398;3.676;2023-05-18T12:08:39;9.00;;;4.57;;
78774;SDS011;68119;43.398;3.676;2023-05-18T12:11:10;7.68;;;4.65;;
78774;SDS011;68119;43.398;3.676;2023-05-18T12:13:42;8.02;;;4.43;;
78774;SDS011;68119;43.398;3.676;2023-05-18T12:16:14;5.75;;;4.20;;
78774;SDS011;68119;43.398;3.676;2023-05-18T12:18:40;9.15;;;4.82;;
78774;SDS011;68119;43.398;3.676;2023-05-18T12:21:11;7.82;;;4.65;;
78774;SDS011;68119;43.398;3.676;2023-05-18T12:23:40;11.88;;;4.43;;
78774;SDS011;68119;43.398;3.676;2023-05-18T12:26:07;8.60;;;4.40;;
78774;SDS011;68119;43.398;3.676;2023-05-18T12:28:39;7.57;;;4.43;;
78774;SDS011;68119;43.398;3.676;2023-05-18T12:31:08;10.98;;;4.63;;
78774;SDS011;68119;43.398;3.676;2023-05-18T12:33:37;11.90;;;5.25;;
78774;SDS011;68119;43.398;3.676;2023-05-18T12:36:09;10.93;;;5.28;;
78774;SDS011;68119;43.398;3.676;2023-05-18T12:38:37;9.60;;;4.30;;
78774;SDS011;68119;43.398;3.676;2023-05-18T12:41:04;9.10;;;4.05;;
78774;SDS011;68119;43.398;3.676;2023-05-18T12:43:34;8.15;;;4.50;;
78774;SDS011;68119;43.398;3.676;2023-05-18T12:46:04;7.70;;;4.60;;
78774;SDS011;68119;43.398;3.676;2023-05-18T12:48:43;8.98;;;4.50;;
78774;SDS011;68119;43.398;3.676;2023-05-18T12:51:20;11.68;;;4.53;;
78774;SDS011;68119;43.398;3.676;2023-05-18T12:53:48;8.80;;;4.72;;
78774;SDS011;68119;43.398;3.676;2023-05-18T12:56:17;7.90;;;4.30;;
78774;SDS011;68119;43.398;3.676;2023-05-18T12:58:58;11.10;;;4.93;;
78774;SDS011;68119;43.398;3.676;2023-05-18T13:01:28;8.48;;;4.97;;
78774;SDS011;68119;43.398;3.676;2023-05-18T13:03:57;10.85;;;5.25;;
78774;SDS011;68119;43.398;3.676;2023-05-18T13:06:23;10.73;;;5.10;;
78774;SDS011;68119;43.398;3.676;2023-05-18T13:08:56;10.32;;;5.22;;
78774;SDS011;68119;43.398;3.676;2023-05-18T13:11:28;8.75;;;5.55;;
78774;SDS011;68119;43.398;3.676;2023-05-18T13:14:02;9.27;;;5.30;;
78774;SDS011;68119;43.398;3.676;2023-05-18T13:16:32;10.77;;;5.25;;
78774;SDS011;68119;43.398;3.676;2023-05-18T13:19:00;10.85;;;5.18;;
78774;SDS011;68119;43.398;3.676;2023-05-18T13:21:29;11.85;;;5.65;;
78774;SDS011;68119;43.398;3.676;2023-05-18T13:23:55;9.40;;;4.90;;
78774;SDS011;68119;43.398;3.676;2023-05-18T13:26:22;7.18;;;4.75;;
78774;SDS011;68119;43.398;3.676;2023-05-18T13:28:52;8.00;;;4.70;;
78774;SDS011;68119;43.398;3.676;2023-05-18T13:31:18;13.05;;;5.53;;
78774;SDS011;68119;43.398;3.676;2023-05-18T13:33:47;9.60;;;4.93;;
78774;SDS011;68119;43.398;3.676;2023-05-18T13:36:17;10.88;;;5.15;;
78774;SDS011;68119;43.398;3.676;2023-05-18T13:38:43;9.85;;;4.93;;
78774;SDS011;68119;43.398;3.676;2023-05-18T13:41:10;7.75;;;4.85;;
78774;SDS011;68119;43.398;3.676;2023-05-18T13:43:44;10.55;;;4.85;;
78774;SDS011;68119;43.398;3.676;2023-05-18T13:46:18;9.02;;;5.32;;
78774;SDS011;68119;43.398;3.676;2023-05-18T13:48:50;11.05;;;5.10;;
78774;SDS011;68119;43.398;3.676;2023-05-18T13:51:16;6.80;;;4.25;;
78774;SDS011;68119;43.398;3.676;2023-05-18T13:53:42;7.10;;;4.25;;
78774;SDS011;68119;43.398;3.676;2023-05-18T13:56:08;6.88;;;4.40;;
78774;SDS011;68119;43.398;3.676;2023-05-18T13:58:37;8.32;;;4.40;;
78774;SDS011;68119;43.398;3.676;2023-05-18T14:01:07;8.35;;;4.60;;
78774;SDS011;68119;43.398;3.676;2023-05-18T14:03:37;10.05;;;4.53;;
78774;SDS011;68119;43.398;3.676;2023-05-18T14:06:12;7.13;;;4.13;;
78774;SDS011;68119;43.398;3.676;2023-05-18T14:11:06;5.78;;;4.13;;
78774;SDS011;68119;43.398;3.676;2023-05-18T14:13:38;8.07;;;4.43;;
78774;SDS011;68119;43.398;3.676;2023-05-18T14:16:07;8.75;;;4.25;;
78774;SDS011;68119;43.398;3.676;2023-05-18T14:18:39;10.80;;;4.72;;
78774;SDS011;68119;43.398;3.676;2023-05-18T14:21:05;7.18;;;4.25;;
78774;SDS011;68119;43.398;3.676;2023-05-18T14:23:31;8.65;;;4.07;;
78774;SDS011;68119;43.398;3.676;2023-05-18T14:25:57;6.60;;;4.00;;
78774;SDS011;68119;43.398;3.676;2023-05-18T14:28:26;8.20;;;4.22;;
78774;SDS011;68119;43.398;3.676;2023-05-18T14:30:54;5.57;;;3.50;;
78774;SDS011;68119;43.398;3.676;2023-05-18T14:33:20;7.22;;;3.65;;
78774;SDS011;68119;43.398;3.676;2023-05-18T14:35:48;5.80;;;3.45;;
78774;SDS011;68119;43.398;3.676;2023-05-18T14:38:17;10.50;;;3.80;;
78774;SDS011;68119;43.398;3.676;2023-05-18T14:40:53;8.30;;;4.05;;
78774;SDS011;68119;43.398;3.676;2023-05-18T14:43:25;8.23;;;4.22;;
78774;SDS011;68119;43.398;3.676;2023-05-18T14:45:54;6.80;;;3.88;;
78774;SDS011;68119;43.398;3.676;2023-05-18T14:48:28;9.38;;;4.10;;
78774;SDS011;68119;43.398;3.676;2023-05-18T14:50:57;6.18;;;3.50;;
78774;SDS011;68119;43.398;3.676;2023-05-18T14:53:26;8.38;;;4.30;;
78774;SDS011;68119;43.398;3.676;2023-05-18T14:55:52;7.95;;;3.95;;
78774;SDS011;68119;43.398;3.676;2023-05-18T14:58:18;8.02;;;4.05;;
78774;SDS011;68119;43.398;3.676;2023-05-18T15:00:46;7.30;;;4.15;;
78774;SDS011;68119;43.398;3.676;2023-05-18T15:03:12;11.60;;;4.68;;
78774;SDS011;68119;43.398;3.676;2023-05-18T15:05:41;8.18;;;3.92;;
78774;SDS011;68119;43.398;3.676;2023-05-18T15:08:12;7.05;;;4.07;;
78774;SDS011;68119;43.398;3.676;2023-05-18T15:10:45;5.80;;;3.60;;
78774;SDS011;68119;43.398;3.676;2023-05-18T15:13:14;7.85;;;3.80;;
78774;SDS011;68119;43.398;3.676;2023-05-18T15:15:40;9.13;;;3.90;;
78774;SDS011;68119;43.398;3.676;2023-05-18T15:18:10;6.63;;;3.90;;
78774;SDS011;68119;43.398;3.676;2023-05-18T15:20:36;7.43;;;3.90;;
78774;SDS011;68119;43.398;3.676;2023-05-18T15:23:06;7.30;;;3.80;;
78774;SDS011;68119;43.398;3.676;2023-05-18T15:25:32;6.82;;;3.40;;
78774;SDS011;68119;43.398;3.676;2023-05-18T15:28:01;6.75;;;3.90;;
78774;SDS011;68119;43.398;3.676;2023-05-18T15:30:30;7.57;;;4.50;;
78774;SDS011;68119;43.398;3.676;2023-05-18T15:33:09;8.65;;;4.85;;
78774;SDS011;68119;43.398;3.676;2023-05-18T15:35:41;7.55;;;4.50;;
78774;SDS011;68119;43.398;3.676;2023-05-18T15:38:07;12.43;;;4.97;;
78774;SDS011;68119;43.398;3.676;2023-05-18T15:40:33;7.13;;;3.80;;